Time;durP1;ratioP1;P1;durP2;ratioP2;P2;SDS_P1;SDS_P2;PMS_P1;PMS_P2;Temp;Humidity;BMP_temperature;BMP_pressure;BME280_temperature;BME280_humidity;BME280_pressure;Samples;Min_cycle;Max_cycle;Signal;HPM_P1;HPM_P2
2023/12/09 00:00:14;;;;;;;50.30;27.50;;;2.30;99.90;;;;;;5196281;28;20175;-46
2023/12/09 00:02:44;;;;;;;55.53;28.87;;;2.40;99.90;;;;;;5191538;28;20222;-47
2023/12/09 00:05:15;;;;;;;59.13;30.30;;;2.40;99.90;;;;;;5218996;28;20516;-46
2023/12/09 00:07:46;;;;;;;56.43;30.17;;;2.30;99.90;;;;;;5216091;28;21403;-47
2023/12/09 00:10:16;;;;;;;53.47;28.50;;;2.20;99.90;;;;;;5201193;28;20279;-46
2023/12/09 00:12:48;;;;;;;58.60;31.37;;;2.20;99.90;;;;;;5195085;28;20294;-49
2023/12/09 00:15:18;;;;;;;56.33;28.23;;;2.40;99.90;;;;;;5197274;28;20198;-47
2023/12/09 00:17:49;;;;;;;57.67;29.43;;;2.30;99.90;;;;;;5196066;28;20433;-48
2023/12/09 00:20:20;;;;;;;51.20;27.60;;;2.40;99.90;;;;;;5206190;28;20214;-47
2023/12/09 00:22:50;;;;;;;51.33;26.93;;;2.40;99.90;;;;;;5215897;28;20574;-48
2023/12/09 00:25:21;;;;;;;62.87;28.97;;;2.30;99.90;;;;;;5212495;28;20184;-48
2023/12/09 00:27:52;;;;;;;54.50;26.00;;;2.30;99.90;;;;;;5209236;28;20226;-47
2023/12/09 00:30:22;;;;;;;54.87;28.70;;;2.20;99.90;;;;;;5213913;28;20241;-48
2023/12/09 00:32:53;;;;;;;59.23;30.50;;;2.20;99.90;;;;;;5196255;28;20212;-48
2023/12/09 00:35:23;;;;;;;60.00;29.33;;;2.20;99.90;;;;;;5198911;28;20179;-47
2023/12/09 00:37:54;;;;;;;55.63;28.50;;;2.20;99.90;;;;;;5192482;28;20234;-47
2023/12/09 00:40:25;;;;;;;68.00;32.80;;;2.30;99.90;;;;;;5211945;28;20175;-46
2023/12/09 00:42:55;;;;;;;73.20;35.63;;;2.20;99.90;;;;;;5198178;28;20234;-48
2023/12/09 00:45:26;;;;;;;64.40;34.10;;;2.30;99.90;;;;;;5214446;28;20281;-48
2023/12/09 00:47:57;;;;;;;52.60;29.97;;;2.30;99.90;;;;;;5217022;28;20207;-46
2023/12/09 00:50:27;;;;;;;55.67;29.07;;;2.30;99.90;;;;;;5214536;28;20259;-47
2023/12/09 00:52:58;;;;;;;61.37;29.23;;;2.30;99.90;;;;;;5219457;28;20214;-47
2023/12/09 00:55:28;;;;;;;50.07;25.10;;;2.50;99.90;;;;;;5195095;28;20183;-48
2023/12/09 00:57:59;;;;;;;47.67;25.73;;;2.50;99.90;;;;;;5197004;28;20278;-47
2023/12/09 01:00:30;;;;;;;44.33;24.70;;;2.40;99.90;;;;;;5215457;28;20188;-46
2023/12/09 01:03:00;;;;;;;50.03;26.67;;;2.30;99.90;;;;;;5210354;28;20562;-45
2023/12/09 01:05:31;;;;;;;57.23;27.13;;;2.30;99.90;;;;;;5213042;28;20184;-46
2023/12/09 01:08:01;;;;;;;56.83;27.80;;;2.30;99.90;;;;;;5202185;28;20193;-46
2023/12/09 01:10:32;;;;;;;44.53;24.43;;;2.40;99.90;;;;;;5197111;28;20652;-47
2023/12/09 01:13:02;;;;;;;52.97;27.20;;;2.30;99.90;;;;;;5211919;28;20219;-48
2023/12/09 01:15:33;;;;;;;56.90;28.27;;;2.30;99.90;;;;;;5211649;28;20179;-49
2023/12/09 01:18:04;;;;;;;63.63;27.40;;;2.60;99.90;;;;;;5220391;28;20180;-47
2023/12/09 01:20:34;;;;;;;46.80;24.93;;;2.40;99.90;;;;;;5212275;28;20190;-49
2023/12/09 01:23:05;;;;;;;47.53;27.43;;;2.40;99.90;;;;;;5197080;28;20259;-46
2023/12/09 01:25:35;;;;;;;48.67;26.70;;;2.40;99.90;;;;;;5208850;28;20183;-48
2023/12/09 01:28:06;;;;;;;43.70;26.43;;;2.30;99.90;;;;;;5210497;28;20191;-47
2023/12/09 01:30:37;;;;;;;47.07;24.67;;;2.30;99.90;;;;;;5197162;28;20190;-48
2023/12/09 01:33:07;;;;;;;45.70;24.33;;;2.30;99.90;;;;;;5192817;28;20216;-48
2023/12/09 01:35:38;;;;;;;42.33;23.23;;;2.30;99.90;;;;;;5192157;28;20179;-47
2023/12/09 01:38:08;;;;;;;49.33;24.40;;;2.30;99.90;;;;;;5211446;28;20679;-46
2023/12/09 01:40:39;;;;;;;44.57;24.70;;;2.40;99.90;;;;;;5212593;28;20191;-46
2023/12/09 01:43:10;;;;;;;43.27;22.87;;;2.40;99.90;;;;;;5214435;28;20208;-46
2023/12/09 01:45:41;;;;;;;47.90;24.00;;;2.40;99.90;;;;;;5195298;28;20198;-47
2023/12/09 01:48:12;;;;;;;39.60;23.27;;;2.40;99.90;;;;;;5215550;28;20434;-47
2023/12/09 01:50:43;;;;;;;42.70;24.47;;;2.40;99.90;;;;;;5223936;28;20186;-47
2023/12/09 01:53:14;;;;;;;52.23;26.50;;;2.40;99.90;;;;;;5196058;28;20828;-46
2023/12/09 01:55:46;;;;;;;48.70;25.33;;;2.40;99.90;;;;;;5213695;28;20450;-46
2023/12/09 01:58:18;;;;;;;47.60;24.40;;;2.60;99.90;;;;;;5193214;28;20449;-47
2023/12/09 02:00:49;;;;;;;50.40;25.17;;;2.50;99.90;;;;;;5190667;28;20430;-46
2023/12/09 02:03:20;;;;;;;43.80;24.73;;;2.40;99.90;;;;;;5189408;28;20464;-46
2023/12/09 02:05:51;;;;;;;50.80;24.87;;;2.50;99.90;;;;;;5198285;28;20230;-47
2023/12/09 02:08:21;;;;;;;45.90;23.53;;;2.40;99.90;;;;;;5207021;28;20187;-48
2023/12/09 02:11:03;;;;;;;47.30;25.80;;;2.40;99.90;;;;;;5194986;28;20711;-48
2023/12/09 02:14:04;;;;;;;47.07;26.37;;;2.50;99.90;;;;;;5188817;28;20631;-47
2023/12/09 02:17:03;;;;;;;46.03;25.03;;;2.60;99.90;;;;;;5188309;28;20445;-47
2023/12/09 02:19:33;;;;;;;50.47;25.97;;;2.70;99.90;;;;;;5190628;28;20427;-47
2023/12/09 02:22:06;;;;;;;52.60;25.67;;;2.60;99.90;;;;;;5199222;28;20466;-47
2023/12/09 02:24:37;;;;;;;49.10;25.60;;;2.50;99.90;;;;;;5210982;28;20203;-48
2023/12/09 02:27:12;;;;;;;46.47;24.97;;;2.70;99.90;;;;;;5213319;28;20452;-49
2023/12/09 02:30:01;;;;;;;46.80;25.10;;;2.60;99.90;;;;;;5218072;28;20198;-47
2023/12/09 02:32:34;;;;;;;50.10;25.97;;;2.50;99.90;;;;;;5193908;28;20454;-48
2023/12/09 02:35:08;;;;;;;55.13;26.17;;;2.50;99.90;;;;;;5208784;28;20460;-48
2023/12/09 02:37:39;;;;;;;51.53;26.13;;;2.50;99.90;;;;;;5201509;28;20436;-49
2023/12/09 02:40:11;;;;;;;49.37;26.57;;;2.50;99.90;;;;;;5208121;28;20517;-47
2023/12/09 02:42:42;;;;;;;46.40;24.90;;;2.70;99.90;;;;;;5213221;28;20418;-47
2023/12/09 02:45:12;;;;;;;53.77;24.40;;;2.70;99.90;;;;;;5214919;28;20799;-48
2023/12/09 02:47:46;;;;;;;49.93;26.17;;;2.60;99.90;;;;;;5211555;28;20439;-47
2023/12/09 02:50:17;;;;;;;56.37;28.40;;;2.60;99.90;;;;;;5197290;28;20187;-49
2023/12/09 02:52:47;;;;;;;64.80;27.50;;;2.70;99.90;;;;;;5203571;28;21064;-47
2023/12/09 02:55:18;;;;;;;70.80;27.13;;;2.60;99.90;;;;;;5214752;28;20191;-48
2023/12/09 02:57:49;;;;;;;60.73;29.07;;;2.60;99.90;;;;;;5212853;28;20712;-48
2023/12/09 03:00:19;;;;;;;56.43;27.03;;;2.80;99.90;;;;;;5192221;28;20656;-47
2023/12/09 03:02:50;;;;;;;52.60;24.90;;;2.90;99.90;;;;;;5200830;28;20179;-48
2023/12/09 03:05:20;;;;;;;60.40;26.67;;;2.80;99.90;;;;;;5194544;28;20688;-47
2023/12/09 03:07:51;;;;;;;56.00;28.93;;;2.60;99.90;;;;;;5196868;28;20176;-47
2023/12/09 03:10:22;;;;;;;68.97;28.93;;;2.50;99.90;;;;;;5226105;28;20270;-46
2023/12/09 03:12:52;;;;;;;59.67;26.00;;;2.50;99.90;;;;;;5200627;28;20634;-47
2023/12/09 03:15:23;;;;;;;55.40;27.20;;;2.40;99.90;;;;;;5211610;28;20175;-47
2023/12/09 03:17:54;;;;;;;60.50;27.90;;;2.40;99.90;;;;;;5197105;28;20179;-46
2023/12/09 03:20:25;;;;;;;50.27;26.93;;;2.50;99.90;;;;;;5217582;28;20180;-47
2023/12/09 03:22:56;;;;;;;58.57;26.00;;;2.60;99.90;;;;;;5216522;28;20656;-47
2023/12/09 03:25:26;;;;;;;58.90;28.20;;;2.60;99.90;;;;;;5198347;28;20442;-47
2023/12/09 03:27:57;;;;;;;55.60;26.30;;;2.60;99.90;;;;;;5195715;28;20179;-47
2023/12/09 03:30:27;;;;;;;58.10;26.80;;;2.60;99.90;;;;;;5193469;28;20179;-48
2023/12/09 03:32:58;;;;;;;60.07;27.90;;;2.60;99.90;;;;;;5219981;28;20198;-46
2023/12/09 03:35:29;;;;;;;56.07;26.83;;;2.80;99.90;;;;;;5174174;28;20205;-47
2023/12/09 03:37:59;;;;;;;67.23;29.10;;;2.70;99.90;;;;;;5221413;28;20201;-47
2023/12/09 03:40:30;;;;;;;69.17;27.57;;;2.60;99.90;;;;;;5221606;28;20190;-47
2023/12/09 03:43:00;;;;;;;67.20;29.03;;;2.40;99.90;;;;;;5203576;28;20607;-48
2023/12/09 03:45:31;;;;;;;74.80;29.70;;;2.50;99.90;;;;;;5209944;28;20194;-47
2023/12/09 03:48:01;;;;;;;70.40;29.50;;;2.50;99.90;;;;;;5213962;28;20254;-47
2023/12/09 03:50:32;;;;;;;84.30;32.33;;;2.40;99.90;;;;;;5196579;28;20264;-46
2023/12/09 03:53:03;;;;;;;74.93;31.10;;;2.40;99.90;;;;;;5196417;28;20294;-47
2023/12/09 03:55:33;;;;;;;68.77;29.50;;;2.30;99.90;;;;;;5222984;28;20187;-46
2023/12/09 03:58:06;;;;;;;67.10;28.07;;;2.60;99.90;;;;;;5210970;28;20659;-46
2023/12/09 04:00:37;;;;;;;72.23;30.67;;;2.50;99.90;;;;;;5194555;28;20187;-47
2023/12/09 04:03:08;;;;;;;62.23;29.93;;;2.60;99.90;;;;;;5198118;28;20466;-47
2023/12/09 04:05:40;;;;;;;81.53;29.27;;;2.60;99.90;;;;;;5213067;28;20706;-46
2023/12/09 04:08:10;;;;;;;87.17;32.03;;;2.60;99.90;;;;;;5217136;28;20435;-47
2023/12/09 04:10:41;;;;;;;75.07;32.47;;;2.60;99.90;;;;;;5198088;28;20849;-47
2023/12/09 04:13:12;;;;;;;66.00;30.60;;;2.60;99.90;;;;;;5209513;28;20211;-48
2023/12/09 04:15:42;;;;;;;65.33;30.03;;;2.70;99.90;;;;;;5199014;28;20175;-49
2023/12/09 04:18:13;;;;;;;62.27;27.60;;;2.70;99.90;;;;;;5215905;28;20602;-47
2023/12/09 04:20:43;;;;;;;67.47;29.80;;;2.70;99.90;;;;;;5216966;28;20271;-49
2023/12/09 04:23:15;;;;;;;90.53;32.00;;;2.60;99.90;;;;;;5208908;28;20210;-47
2023/12/09 04:25:45;;;;;;;78.93;32.50;;;2.60;99.90;;;;;;5194588;28;20192;-49
2023/12/09 04:28:16;;;;;;;71.87;30.43;;;2.80;99.90;;;;;;5192106;28;20434;-47
2023/12/09 04:30:47;;;;;;;85.40;30.50;;;2.70;99.90;;;;;;5216814;28;20278;-48
2023/12/09 04:33:17;;;;;;;83.17;32.83;;;2.60;99.90;;;;;;5209936;28;20229;-47
2023/12/09 04:35:48;;;;;;;74.40;33.00;;;2.70;99.90;;;;;;5215584;28;20553;-48
2023/12/09 04:38:19;;;;;;;84.30;32.90;;;2.70;99.90;;;;;;5206415;28;20257;-47
2023/12/09 04:40:49;;;;;;;76.97;31.67;;;2.60;99.90;;;;;;5209922;28;20585;-46
2023/12/09 04:43:20;;;;;;;82.00;33.90;;;2.50;99.90;;;;;;5208467;28;20611;-48
2023/12/09 04:45:52;;;;;;;92.23;33.23;;;2.50;99.90;;;;;;5216332;28;20206;-47
2023/12/09 04:48:22;;;;;;;103.77;34.03;;;2.60;99.90;;;;;;5213175;28;20195;-46
2023/12/09 04:50:53;;;;;;;95.97;33.67;;;2.50;99.90;;;;;;5195565;28;20476;-47
2023/12/09 04:53:23;;;;;;;116.20;38.07;;;2.50;99.90;;;;;;5212342;28;20686;-49
2023/12/09 04:55:54;;;;;;;110.37;36.40;;;2.40;99.90;;;;;;5198958;28;20579;-47
2023/12/09 04:58:25;;;;;;;111.17;39.47;;;2.40;99.90;;;;;;5196381;28;20192;-48
2023/12/09 05:00:55;;;;;;;122.40;38.27;;;2.30;99.90;;;;;;5202332;28;20727;-48
2023/12/09 05:03:26;;;;;;;120.73;39.77;;;2.40;99.90;;;;;;5198202;28;20238;-48
2023/12/09 05:05:57;;;;;;;109.60;39.33;;;2.50;99.90;;;;;;5211281;28;20188;-46
2023/12/09 05:08:28;;;;;;;124.97;39.20;;;2.50;99.90;;;;;;5221153;28;20163;-48
2023/12/09 05:10:58;;;;;;;137.10;39.60;;;2.50;99.90;;;;;;5214348;28;20187;-48
2023/12/09 05:13:29;;;;;;;125.40;40.17;;;2.40;99.90;;;;;;5194841;28;20454;-47
2023/12/09 05:15:59;;;;;;;128.57;40.23;;;2.40;99.90;;;;;;5197455;28;20183;-48
2023/12/09 05:18:30;;;;;;;106.23;39.87;;;2.30;99.90;;;;;;5209090;28;20637;-47
2023/12/09 05:21:01;;;;;;;117.60;39.80;;;2.40;99.90;;;;;;5220539;28;20250;-47
2023/12/09 05:23:32;;;;;;;135.27;41.90;;;2.40;99.90;;;;;;5197247;28;20766;-45
2023/12/09 05:26:03;;;;;;;152.00;43.83;;;2.40;99.90;;;;;;5217852;28;20172;-48
2023/12/09 05:28:33;;;;;;;122.93;39.57;;;2.50;99.90;;;;;;5195501;28;20453;-47
2023/12/09 05:31:04;;;;;;;115.47;38.83;;;2.50;99.90;;;;;;5199880;28;20560;-47
2023/12/09 05:33:35;;;;;;;128.10;41.80;;;2.50;99.90;;;;;;5197986;28;20223;-47
2023/12/09 05:36:06;;;;;;;124.50;41.57;;;2.50;99.90;;;;;;5202340;28;20233;-48
2023/12/09 05:38:37;;;;;;;129.57;39.07;;;2.50;99.90;;;;;;5190658;28;20237;-46
2023/12/09 05:41:09;;;;;;;135.93;42.30;;;2.40;99.90;;;;;;5192137;28;20939;-47
2023/12/09 05:43:40;;;;;;;132.10;40.30;;;2.40;99.90;;;;;;5205528;28;20534;-48
2023/12/09 05:46:18;;;;;;;142.20;41.20;;;2.40;99.90;;;;;;5196509;28;20869;-48
2023/12/09 05:48:49;;;;;;;152.07;44.37;;;2.40;99.90;;;;;;5201035;28;20186;-46
2023/12/09 05:51:20;;;;;;;134.17;41.93;;;2.50;99.90;;;;;;5213660;28;20466;-48
2023/12/09 05:53:50;;;;;;;110.37;36.07;;;2.40;99.90;;;;;;5199622;28;20278;-46
2023/12/09 05:56:21;;;;;;;143.33;42.07;;;2.50;99.90;;;;;;5206870;28;20668;-46
2023/12/09 05:58:52;;;;;;;134.37;43.50;;;2.50;99.90;;;;;;5194861;28;20187;-46
2023/12/09 06:01:22;;;;;;;144.83;42.10;;;2.40;99.90;;;;;;5194265;28;20277;-47
2023/12/09 06:03:53;;;;;;;128.40;40.73;;;2.50;99.90;;;;;;5200795;28;20601;-48
2023/12/09 06:06:23;;;;;;;125.37;41.90;;;2.50;99.90;;;;;;5194484;28;20191;-46
2023/12/09 06:08:54;;;;;;;121.20;42.40;;;2.60;99.90;;;;;;5196020;28;20179;-47
2023/12/09 06:11:25;;;;;;;120.70;42.43;;;2.60;99.90;;;;;;5202437;28;20203;-47
2023/12/09 06:13:55;;;;;;;144.77;42.73;;;2.70;99.90;;;;;;5213034;28;20191;-48
2023/12/09 06:16:26;;;;;;;134.30;42.67;;;2.60;99.90;;;;;;5201667;28;20174;-47
2023/12/09 06:18:56;;;;;;;99.73;42.77;;;2.60;99.90;;;;;;5196819;28;20175;-46
2023/12/09 06:21:27;;;;;;;138.27;45.03;;;2.60;99.90;;;;;;5221557;28;20184;-46
2023/12/09 06:23:59;;;;;;;112.63;40.77;;;2.60;99.90;;;;;;5208448;28;20274;-48
2023/12/09 06:26:29;;;;;;;125.13;41.17;;;2.70;99.90;;;;;;5220761;28;20190;-48
2023/12/09 06:29:00;;;;;;;111.40;41.40;;;2.70;99.90;;;;;;5199153;28;20438;-46
2023/12/09 06:31:30;;;;;;;112.43;39.83;;;2.70;99.90;;;;;;5220544;28;20208;-47
2023/12/09 06:34:01;;;;;;;111.07;39.97;;;2.70;99.90;;;;;;5214839;28;20195;-47
2023/12/09 06:36:32;;;;;;;111.70;40.90;;;2.70;99.90;;;;;;5206522;28;20550;-46
2023/12/09 06:39:03;;;;;;;92.87;37.00;;;2.70;99.90;;;;;;5202349;28;20218;-46
2023/12/09 06:41:39;;;;;;;119.70;37.40;;;2.80;99.90;;;;;;5225495;28;20187;-47
2023/12/09 06:44:09;;;;;;;91.77;36.53;;;2.80;99.90;;;;;;5202754;28;20469;-47
2023/12/09 06:46:40;;;;;;;96.80;38.57;;;2.80;99.90;;;;;;5207453;28;20842;-46
2023/12/09 06:49:11;;;;;;;98.40;38.10;;;2.80;99.90;;;;;;5202352;28;20198;-47
2023/12/09 06:51:43;;;;;;;92.33;35.33;;;2.70;99.90;;;;;;5199761;28;20465;-46
2023/12/09 06:54:14;;;;;;;97.53;36.90;;;2.80;99.90;;;;;;5203361;28;20203;-48
2023/12/09 06:56:44;;;;;;;92.97;35.77;;;2.90;99.90;;;;;;5201524;28;20449;-47
2023/12/09 06:59:15;;;;;;;92.00;37.80;;;3.00;99.90;;;;;;5200828;28;20190;-48
2023/12/09 07:01:49;;;;;;;87.47;36.70;;;3.20;99.90;;;;;;5219416;28;20200;-46
2023/12/09 07:04:19;;;;;;;91.20;33.77;;;3.20;99.90;;;;;;5192374;28;20215;-48
2023/12/09 07:06:50;;;;;;;98.43;32.23;;;3.40;99.90;;;;;;5217263;28;20779;-47
2023/12/09 07:09:21;;;;;;;83.80;34.63;;;3.40;99.90;;;;;;5202077;28;20186;-48
2023/12/09 07:11:51;;;;;;;96.10;33.03;;;3.30;99.90;;;;;;5202121;28;20203;-49
2023/12/09 07:14:22;;;;;;;80.47;31.97;;;3.30;99.90;;;;;;5198045;28;20222;-47
2023/12/09 07:16:53;;;;;;;68.20;31.40;;;3.40;99.90;;;;;;5220267;28;20192;-48
2023/12/09 07:19:23;;;;;;;75.57;31.00;;;3.40;99.90;;;;;;5212787;28;22370;-50
2023/12/09 07:21:54;;;;;;;70.20;31.87;;;3.40;99.90;;;;;;5219309;28;20240;-48
2023/12/09 07:24:25;;;;;;;75.07;31.77;;;3.50;99.90;;;;;;5221797;28;20199;-49
2023/12/09 07:26:55;;;;;;;65.60;30.17;;;3.40;99.90;;;;;;5198984;28;20965;-48
2023/12/09 07:29:26;;;;;;;59.00;29.33;;;3.20;99.90;;;;;;5204058;28;20207;-46
2023/12/09 07:31:57;;;;;;;60.90;30.13;;;3.20;99.90;;;;;;5202248;28;20258;-48
2023/12/09 07:34:27;;;;;;;55.90;28.97;;;3.30;99.90;;;;;;5207118;28;20205;-49
2023/12/09 07:36:58;;;;;;;65.70;30.97;;;3.40;99.90;;;;;;5211626;28;20181;-47
2023/12/09 07:39:28;;;;;;;69.37;31.13;;;3.40;99.90;;;;;;5216275;28;20200;-48
2023/12/09 07:41:59;;;;;;;77.43;31.63;;;3.50;99.90;;;;;;5220347;28;20244;-47
2023/12/09 07:44:30;;;;;;;61.83;27.20;;;3.60;99.90;;;;;;5195699;28;20199;-47
2023/12/09 07:47:00;;;;;;;66.93;30.17;;;3.60;99.90;;;;;;5201275;28;20210;-47
2023/12/09 07:49:31;;;;;;;54.17;27.20;;;3.50;99.90;;;;;;5195953;28;20253;-47
2023/12/09 07:52:02;;;;;;;58.03;26.07;;;3.60;99.90;;;;;;5220975;28;20208;-49
2023/12/09 07:54:32;;;;;;;53.13;27.77;;;3.70;99.90;;;;;;5197013;28;20211;-47
2023/12/09 07:57:03;;;;;;;49.77;25.00;;;3.70;99.90;;;;;;5221989;28;20190;-48
2023/12/09 07:59:34;;;;;;;45.80;23.80;;;3.70;99.90;;;;;;5217238;28;20189;-48
2023/12/09 08:02:05;;;;;;;59.97;28.27;;;3.70;99.90;;;;;;5199107;28;20267;-48
2023/12/09 08:04:36;;;;;;;58.40;26.23;;;3.80;99.90;;;;;;5217168;28;20212;-47
2023/12/09 08:07:06;;;;;;;49.03;24.20;;;3.70;99.90;;;;;;5216273;28;20500;-48
2023/12/09 08:09:37;;;;;;;67.97;26.77;;;3.80;99.90;;;;;;5209564;28;20444;-47
2023/12/09 08:12:08;;;;;;;44.17;23.27;;;3.90;99.90;;;;;;5217682;28;20210;-47
2023/12/09 08:14:39;;;;;;;48.90;25.77;;;4.00;99.90;;;;;;5198913;28;20229;-49
2023/12/09 08:17:09;;;;;;;43.70;23.00;;;3.80;99.90;;;;;;5198739;28;20175;-47
2023/12/09 08:19:40;;;;;;;60.27;23.40;;;3.80;99.90;;;;;;5215349;28;20180;-49
2023/12/09 08:22:12;;;;;;;43.53;21.83;;;3.80;99.90;;;;;;5198905;28;20271;-49
2023/12/09 08:24:42;;;;;;;49.77;24.90;;;3.90;99.90;;;;;;5219125;28;20259;-47
2023/12/09 08:27:13;;;;;;;50.23;26.37;;;3.90;99.90;;;;;;5219580;28;20441;-49
2023/12/09 08:29:44;;;;;;;53.83;28.33;;;4.00;99.90;;;;;;5212000;28;20263;-48
2023/12/09 08:32:14;;;;;;;46.30;24.30;;;4.00;99.90;;;;;;5208264;28;20225;-49
2023/12/09 08:34:45;;;;;;;43.77;21.80;;;4.10;99.90;;;;;;5213791;28;20204;-50
2023/12/09 08:37:24;;;;;;;46.87;24.57;;;4.10;99.90;;;;;;5211424;28;20265;-47
2023/12/09 08:39:57;;;;;;;62.77;34.93;;;4.10;99.90;;;;;;5208408;28;20174;-49
2023/12/09 08:42:27;;;;;;;46.97;22.27;;;4.10;99.90;;;;;;5195445;28;20818;-48
2023/12/09 08:44:58;;;;;;;45.57;25.73;;;4.20;99.90;;;;;;5216864;28;20456;-50
2023/12/09 08:47:29;;;;;;;40.37;22.60;;;4.10;99.90;;;;;;5215262;28;20190;-47
2023/12/09 08:49:59;;;;;;;42.70;21.97;;;4.10;99.90;;;;;;5204787;28;20189;-46
2023/12/09 08:52:31;;;;;;;42.37;24.87;;;4.10;99.90;;;;;;5209911;28;20310;-47
2023/12/09 08:55:02;;;;;;;49.63;26.23;;;4.30;99.90;;;;;;5195607;28;20205;-48
2023/12/09 08:57:33;;;;;;;43.33;21.77;;;4.30;99.90;;;;;;5193859;28;20449;-48
2023/12/09 09:00:08;;;;;;;46.00;27.23;;;4.20;99.90;;;;;;5209235;28;20266;-48
2023/12/09 09:02:38;;;;;;;50.90;28.03;;;4.30;99.90;;;;;;5214483;28;20184;-47
2023/12/09 09:05:10;;;;;;;43.47;24.33;;;4.40;99.90;;;;;;5244759;22;20492;-52
2023/12/09 09:07:44;;;;;;;49.37;24.83;;;4.40;99.90;;;;;;5246134;28;20234;-51
2023/12/09 09:10:15;;;;;;;46.30;22.43;;;4.40;99.90;;;;;;5245871;28;20430;-52
2023/12/09 09:12:46;;;;;;;47.07;24.00;;;4.40;99.90;;;;;;5228530;28;20472;-52
2023/12/09 09:15:19;;;;;;;51.57;27.33;;;4.40;99.90;;;;;;5248041;28;20891;-52
2023/12/09 09:17:49;;;;;;;42.73;25.60;;;4.40;99.90;;;;;;5229819;28;20807;-51
2023/12/09 09:20:20;;;;;;;42.87;22.67;;;4.50;99.90;;;;;;5240662;28;20480;-52
2023/12/09 09:22:51;;;;;;;50.23;25.93;;;4.40;99.90;;;;;;5245652;28;20179;-53
2023/12/09 09:25:21;;;;;;;72.40;37.23;;;4.50;99.90;;;;;;5244642;28;20196;-53
2023/12/09 09:27:52;;;;;;;47.27;24.03;;;4.70;99.90;;;;;;5230288;28;20180;-53
2023/12/09 09:30:23;;;;;;;42.00;23.50;;;4.60;99.90;;;;;;5230541;28;20184;-51
2023/12/09 09:32:54;;;;;;;87.70;40.97;;;4.50;99.90;;;;;;5248370;28;20607;-52
2023/12/09 09:35:25;;;;;;;41.60;22.73;;;4.70;99.90;;;;;;5230443;28;20453;-52
2023/12/09 09:37:56;;;;;;;39.50;23.00;;;4.50;99.90;;;;;;5248286;28;20180;-50
2023/12/09 09:40:26;;;;;;;63.80;34.17;;;4.40;99.90;;;;;;5227143;28;20174;-52
2023/12/09 09:43:04;;;;;;;53.03;30.97;;;4.70;99.90;;;;;;5232219;28;20545;-50
2023/12/09 09:45:36;;;;;;;41.07;22.90;;;4.70;99.90;;;;;;5246175;28;20297;-56
2023/12/09 09:48:10;;;;;;;48.97;26.70;;;4.90;99.90;;;;;;5230686;28;20525;-53
2023/12/09 09:50:45;;;;;;;42.30;22.93;;;4.70;99.90;;;;;;5244797;28;20429;-53
2023/12/09 09:53:31;;;;;;;43.67;24.23;;;4.70;99.90;;;;;;5230200;28;20537;-54
2023/12/09 09:56:05;;;;;;;42.43;24.60;;;4.70;99.90;;;;;;5215122;28;20433;-53
2023/12/09 09:58:36;;;;;;;41.37;22.63;;;4.60;99.90;;;;;;5244903;28;20452;-53
2023/12/09 10:01:10;;;;;;;63.67;32.47;;;4.70;99.90;;;;;;5217431;28;20503;-50
2023/12/09 10:03:40;;;;;;;39.93;24.27;;;4.70;99.90;;;;;;5230870;28;21034;-50
2023/12/09 10:06:11;;;;;;;39.40;21.00;;;4.70;99.90;;;;;;5230382;28;20537;-52
2023/12/09 10:08:43;;;;;;;30.07;18.13;;;4.70;99.90;;;;;;5244521;28;20208;-53
2023/12/09 10:11:13;;;;;;;39.10;21.90;;;4.70;99.90;;;;;;5232801;28;20435;-52
2023/12/09 10:13:45;;;;;;;39.47;22.13;;;4.90;99.90;;;;;;5248491;28;20523;-53
2023/12/09 10:16:15;;;;;;;50.43;25.70;;;4.90;99.90;;;;;;5233391;28;20187;-52
2023/12/09 10:18:47;;;;;;;36.03;22.27;;;4.80;99.90;;;;;;5243446;28;20438;-52
2023/12/09 10:21:17;;;;;;;44.00;22.33;;;4.90;99.90;;;;;;5245143;28;20185;-51
2023/12/09 10:23:48;;;;;;;44.73;24.17;;;4.90;99.90;;;;;;5230832;28;20454;-54
2023/12/09 10:26:19;;;;;;;54.77;25.73;;;5.00;99.90;;;;;;5236685;28;20185;-52
2023/12/09 10:28:50;;;;;;;55.30;25.80;;;5.00;99.90;;;;;;5212158;28;20185;-52
2023/12/09 10:31:22;;;;;;;50.83;25.17;;;5.10;99.90;;;;;;5245632;28;20192;-52
2023/12/09 10:33:53;;;;;;;34.30;22.10;;;5.10;99.90;;;;;;5227279;28;20458;-51
2023/12/09 10:36:24;;;;;;;55.13;27.30;;;5.20;99.90;;;;;;5215086;28;20506;-51
2023/12/09 10:38:55;;;;;;;54.80;25.60;;;5.10;99.90;;;;;;5245160;28;20188;-53
2023/12/09 10:41:26;;;;;;;40.47;22.73;;;5.10;99.90;;;;;;5241545;28;20178;-52
2023/12/09 10:43:57;;;;;;;46.03;22.60;;;5.40;99.90;;;;;;5245688;28;20443;-54
2023/12/09 10:46:27;;;;;;;33.23;19.83;;;5.40;99.90;;;;;;5227103;28;20640;-53
2023/12/09 10:48:58;;;;;;;32.27;18.70;;;5.30;99.90;;;;;;5240696;28;20180;-51
2023/12/09 10:51:29;;;;;;;42.33;22.03;;;5.20;99.90;;;;;;5228789;28;20202;-52
2023/12/09 10:53:59;;;;;;;29.50;18.80;;;5.10;99.90;;;;;;5226792;28;20199;-53
2023/12/09 10:56:30;;;;;;;43.70;23.70;;;5.10;99.90;;;;;;5244534;28;20183;-51
2023/12/09 10:59:02;;;;;;;34.77;17.53;;;5.20;99.90;;;;;;5231419;28;20185;-51
2023/12/09 11:01:33;;;;;;;48.83;24.43;;;5.20;99.90;;;;;;5245407;28;20231;-52
2023/12/09 11:04:05;;;;;;;55.57;28.47;;;5.20;99.90;;;;;;5228697;28;20494;-52
2023/12/09 11:06:37;;;;;;;42.37;22.10;;;5.30;99.90;;;;;;5245397;28;20661;-51
2023/12/09 11:09:09;;;;;;;49.43;25.60;;;5.20;99.90;;;;;;5246774;28;20780;-52
2023/12/09 11:11:41;;;;;;;36.57;19.50;;;5.20;99.90;;;;;;5248425;28;21005;-53
2023/12/09 11:14:12;;;;;;;33.03;17.87;;;5.30;99.90;;;;;;5247689;28;20440;-52
2023/12/09 11:16:44;;;;;;;29.70;17.50;;;5.20;99.90;;;;;;5234837;28;20448;-53
2023/12/09 11:19:16;;;;;;;35.70;17.67;;;5.20;99.90;;;;;;5237090;28;20470;-54
2023/12/09 11:21:47;;;;;;;32.70;18.10;;;5.30;99.90;;;;;;5234445;28;20443;-52
2023/12/09 11:24:19;;;;;;;31.10;18.23;;;5.40;99.90;;;;;;5231102;28;20532;-53
2023/12/09 11:26:50;;;;;;;24.63;15.90;;;5.40;99.90;;;;;;5249614;28;20174;-52
2023/12/09 11:29:21;;;;;;;27.27;14.87;;;5.40;99.90;;;;;;5232218;28;20453;-52
2023/12/09 11:31:53;;;;;;;32.10;15.90;;;5.60;99.90;;;;;;5231423;28;20455;-52
2023/12/09 11:34:24;;;;;;;30.63;15.30;;;5.60;99.90;;;;;;5231842;28;20216;-52
2023/12/09 11:36:57;;;;;;;28.73;13.83;;;5.70;99.90;;;;;;5248739;28;20511;-55
2023/12/09 11:39:30;;;;;;;25.20;14.40;;;5.70;99.90;;;;;;5250943;28;21065;-52
2023/12/09 11:42:01;;;;;;;18.00;13.53;;;5.70;99.90;;;;;;5239233;28;20447;-52
2023/12/09 11:44:33;;;;;;;20.90;12.83;;;5.80;99.90;;;;;;5235390;28;21737;-50
2023/12/09 11:47:04;;;;;;;28.00;13.43;;;5.80;99.90;;;;;;5240717;28;20611;-50
2023/12/09 11:49:36;;;;;;;18.07;12.80;;;5.80;99.90;;;;;;5244884;28;20447;-49
2023/12/09 11:52:08;;;;;;;23.17;13.53;;;5.80;99.90;;;;;;5238583;28;21041;-52
2023/12/09 11:54:38;;;;;;;17.50;11.30;;;6.00;99.90;;;;;;5228531;28;20470;-52
2023/12/09 11:57:09;;;;;;;27.53;14.90;;;6.00;99.90;;;;;;5248624;28;20433;-53
2023/12/09 11:59:40;;;;;;;24.27;12.33;;;5.90;99.90;;;;;;5245567;28;20182;-52
2023/12/09 12:02:11;;;;;;;17.90;11.10;;;6.00;99.90;;;;;;5248341;28;20494;-51
2023/12/09 12:04:41;;;;;;;20.57;11.33;;;5.90;99.90;;;;;;5248887;28;20631;-50
2023/12/09 12:07:12;;;;;;;25.50;11.20;;;6.00;99.90;;;;;;5233000;28;20564;-50
2023/12/09 12:09:43;;;;;;;23.67;11.90;;;5.90;99.90;;;;;;5249002;28;20213;-51
2023/12/09 12:12:14;;;;;;;18.73;11.63;;;5.90;99.90;;;;;;5232334;28;20451;-50
2023/12/09 12:14:46;;;;;;;16.87;10.63;;;6.00;99.90;;;;;;5232450;28;20203;-50
2023/12/09 12:17:17;;;;;;;18.00;10.30;;;6.00;99.90;;;;;;5230111;28;20827;-52
2023/12/09 12:19:48;;;;;;;20.70;10.70;;;6.00;99.90;;;;;;5227895;28;21161;-53
2023/12/09 12:22:19;;;;;;;17.53;10.63;;;6.10;99.90;;;;;;5248888;28;20500;-52
2023/12/09 12:24:49;;;;;;;19.33;11.33;;;5.90;99.90;;;;;;5228018;28;20611;-51
2023/12/09 12:27:20;;;;;;;15.63;9.40;;;6.00;99.90;;;;;;5224821;28;20214;-52
2023/12/09 12:29:51;;;;;;;23.37;12.43;;;5.90;99.90;;;;;;5243434;28;20204;-53
2023/12/09 12:32:22;;;;;;;23.47;12.67;;;5.90;99.90;;;;;;5251601;28;20263;-52
2023/12/09 12:34:53;;;;;;;27.60;12.23;;;6.10;99.90;;;;;;5227268;28;20284;-50
2023/12/09 12:37:24;;;;;;;22.37;12.30;;;6.00;99.90;;;;;;5223634;28;20550;-48
2023/12/09 12:39:54;;;;;;;19.83;11.37;;;6.20;99.90;;;;;;5244760;28;20187;-51
2023/12/09 12:42:25;;;;;;;24.80;10.80;;;6.20;99.90;;;;;;5246694;28;20179;-51
2023/12/09 12:44:56;;;;;;;18.97;10.40;;;6.10;99.90;;;;;;5229364;28;20206;-52
2023/12/09 12:47:27;;;;;;;14.37;9.67;;;6.00;99.90;;;;;;5250907;28;20403;-49
2023/12/09 12:49:58;;;;;;;21.57;10.77;;;6.10;99.90;;;;;;5245273;28;20185;-53
2023/12/09 12:52:28;;;;;;;18.13;10.07;;;6.00;99.90;;;;;;5226817;28;20206;-49
2023/12/09 12:54:59;;;;;;;14.43;9.80;;;5.80;99.90;;;;;;5245657;28;20205;-48